createdAt,value
2019-02-25T00:00:47.236Z,0.00
2019-02-25T00:01:47.195Z,0.00
2019-02-25T00:02:47.172Z,0.00
2019-02-25T00:03:47.128Z,0.00
2019-02-25T00:04:47.096Z,0.00
2019-02-25T00:05:47.062Z,0.00
2019-02-25T00:06:47.030Z,0.00
2019-02-25T00:07:46.978Z,0.00
2019-02-25T00:08:46.950Z,0.00
2019-02-25T00:09:46.915Z,0.00
2019-02-25T00:10:46.878Z,0.00
2019-02-25T00:11:46.843Z,0.00
2019-02-25T00:12:46.800Z,0.00
2019-02-25T00:13:46.767Z,0.00
2019-02-25T00:14:46.734Z,0.00
2019-02-25T00:15:46.702Z,0.00
2019-02-25T00:16:46.657Z,0.00
2019-02-25T00:17:46.622Z,0.00
2019-02-25T00:18:46.592Z,0.00
2019-02-25T00:19:46.552Z,0.00
2019-02-25T00:20:46.511Z,0.00
2019-02-25T00:21:46.485Z,0.00
2019-02-25T00:22:46.440Z,0.00
2019-02-25T00:23:46.405Z,0.00
2019-02-25T00:24:46.367Z,0.00
2019-02-25T00:25:46.322Z,0.00
2019-02-25T00:26:46.291Z,0.00
2019-02-25T00:27:46.261Z,0.00
2019-02-25T00:28:46.226Z,0.00
2019-02-25T00:29:46.187Z,0.00
2019-02-25T00:30:46.142Z,0.00
2019-02-25T00:31:46.111Z,0.00
2019-02-25T00:32:46.073Z,0.00
2019-02-25T00:33:46.049Z,0.00
2019-02-25T00:34:45.993Z,0.00
2019-02-25T00:35:45.967Z,0.00
2019-02-25T00:36:45.940Z,0.00
2019-02-25T00:37:45.889Z,0.00
2019-02-25T00:38:45.855Z,0.00
2019-02-25T00:39:45.830Z,0.00
2019-02-25T00:40:45.793Z,0.00
2019-02-25T00:41:45.753Z,0.00
2019-02-25T00:42:45.707Z,0.00
2019-02-25T00:43:45.675Z,0.00
2019-02-25T00:44:45.642Z,0.00
2019-02-25T00:45:45.603Z,0.00
2019-02-25T00:46:45.563Z,0.00
2019-02-25T00:47:45.534Z,0.00
2019-02-25T00:48:45.502Z,0.00
2019-02-25T00:49:45.461Z,0.00
2019-02-25T00:50:45.417Z,0.00
2019-02-25T00:51:45.388Z,0.00
2019-02-25T00:52:45.348Z,0.00
2019-02-25T00:53:45.314Z,0.00
2019-02-25T00:54:45.284Z,0.00
2019-02-25T00:55:45.238Z,0.00
2019-02-25T00:56:45.208Z,0.00
2019-02-25T00:57:45.167Z,0.00
2019-02-25T00:58:45.134Z,0.00
2019-02-25T00:59:45.100Z,0.00
2019-02-25T01:00:45.054Z,0.00
2019-02-25T01:01:45.020Z,0.00
2019-02-25T01:02:44.985Z,0.00
2019-02-25T01:03:44.948Z,0.00
2019-02-25T01:04:44.918Z,0.00
2019-02-25T01:05:44.875Z,0.00
2019-02-25T01:06:44.838Z,0.00
2019-02-25T01:07:44.796Z,0.00
2019-02-25T01:08:44.765Z,0.00
2019-02-25T01:09:44.721Z,0.00
2019-02-25T01:10:44.689Z,0.00
2019-02-25T01:11:44.660Z,0.00
2019-02-25T01:12:44.615Z,0.00
2019-02-25T01:13:44.574Z,0.00
2019-02-25T01:14:44.546Z,0.00
2019-02-25T01:15:44.527Z,0.00
2019-02-25T01:16:44.460Z,0.00
2019-02-25T01:17:44.434Z,0.00
2019-02-25T01:18:44.400Z,0.00
2019-02-25T01:19:44.359Z,0.00
2019-02-25T01:20:44.320Z,0.00
2019-02-25T01:21:44.289Z,0.00
2019-02-25T01:22:44.257Z,0.00
2019-02-25T01:23:44.210Z,0.00
2019-02-25T01:24:44.170Z,0.00
2019-02-25T01:25:44.145Z,0.00
2019-02-25T01:26:44.104Z,0.00
2019-02-25T01:27:44.061Z,0.00
2019-02-25T01:28:44.031Z,0.00
2019-02-25T01:29:43.992Z,0.00
2019-02-25T01:30:43.956Z,0.00
2019-02-25T01:31:43.922Z,0.00
2019-02-25T01:32:43.896Z,0.00
2019-02-25T01:33:43.850Z,0.00
2019-02-25T01:34:43.811Z,0.00
2019-02-25T01:35:43.767Z,0.00
2019-02-25T01:36:43.740Z,0.00
2019-02-25T01:37:43.702Z,0.00
2019-02-25T01:38:43.661Z,0.00
2019-02-25T01:39:43.622Z,0.00
2019-02-25T01:40:43.587Z,0.00
2019-02-25T01:41:43.551Z,0.00
2019-02-25T01:42:43.513Z,0.00
2019-02-25T01:43:43.472Z,0.00
2019-02-25T01:44:43.445Z,0.00
2019-02-25T01:45:43.404Z,0.00
2019-02-25T01:46:43.368Z,0.00
2019-02-25T01:47:43.330Z,0.00
2019-02-25T01:48:43.286Z,0.00
2019-02-25T01:49:43.251Z,0.00
2019-02-25T01:50:43.221Z,0.00
2019-02-25T01:51:43.176Z,0.00
2019-02-25T01:52:43.139Z,0.00
2019-02-25T01:53:43.107Z,0.00
2019-02-25T01:54:43.071Z,0.00
2019-02-25T01:55:43.032Z,0.00
2019-02-25T01:56:42.997Z,0.00
2019-02-25T01:57:42.973Z,0.00
2019-02-25T01:58:42.923Z,0.00
2019-02-25T01:59:42.887Z,0.00
2019-02-25T02:00:42.843Z,0.00
2019-02-25T02:01:42.807Z,0.00
2019-02-25T02:02:42.771Z,0.00
2019-02-25T02:03:42.737Z,0.00
2019-02-25T02:04:42.697Z,0.00
2019-02-25T02:05:42.656Z,0.00
2019-02-25T02:06:42.629Z,0.00
2019-02-25T02:07:42.580Z,0.00
2019-02-25T02:08:42.538Z,0.00
2019-02-25T02:09:42.508Z,0.00
2019-02-25T02:10:42.473Z,0.00
2019-02-25T02:11:42.436Z,0.00
2019-02-25T02:12:42.402Z,0.00
2019-02-25T02:13:42.354Z,0.00
2019-02-25T02:14:42.320Z,0.00
2019-02-25T02:15:42.294Z,0.00
2019-02-25T02:16:42.243Z,0.00
2019-02-25T02:17:42.219Z,0.00
2019-02-25T02:18:42.178Z,0.00
2019-02-25T02:19:42.142Z,0.00
2019-02-25T02:20:42.099Z,0.00
2019-02-25T02:21:42.063Z,0.00
2019-02-25T02:22:42.024Z,0.00
2019-02-25T02:23:41.984Z,0.00
2019-02-25T02:24:41.952Z,0.00
2019-02-25T02:25:41.904Z,0.00
2019-02-25T02:26:41.876Z,0.00
2019-02-25T02:27:41.843Z,0.00
2019-02-25T02:28:41.806Z,0.00
2019-02-25T02:29:41.763Z,0.00
2019-02-25T02:30:41.724Z,0.00
2019-02-25T02:31:41.695Z,0.00
2019-02-25T02:32:41.644Z,0.00
2019-02-25T02:33:41.618Z,0.00
2019-02-25T02:34:41.578Z,0.00
2019-02-25T02:35:41.544Z,0.00
2019-02-25T02:36:41.503Z,0.00
2019-02-25T02:37:41.469Z,0.00
2019-02-25T02:38:41.438Z,0.00
2019-02-25T02:39:41.393Z,0.00
2019-02-25T02:40:41.357Z,0.00
2019-02-25T02:41:41.325Z,0.00
2019-02-25T02:42:41.283Z,0.00
2019-02-25T02:43:41.246Z,0.00
2019-02-25T02:44:41.196Z,0.00
2019-02-25T02:45:41.165Z,0.00
2019-02-25T02:46:41.133Z,0.00
2019-02-25T02:47:41.094Z,0.00
2019-02-25T02:48:41.046Z,0.00
2019-02-25T02:49:41.009Z,0.00
2019-02-25T02:50:40.985Z,0.00
2019-02-25T02:51:40.941Z,0.00
2019-02-25T02:52:40.901Z,0.00
2019-02-25T02:53:40.870Z,0.00
2019-02-25T02:54:40.826Z,0.00
2019-02-25T02:55:40.781Z,0.00
2019-02-25T02:56:40.757Z,0.00
2019-02-25T02:57:40.718Z,0.00
2019-02-25T02:58:40.690Z,0.00
2019-02-25T02:59:40.644Z,0.00
2019-02-25T03:00:40.619Z,0.00
2019-02-25T03:01:40.570Z,0.00
2019-02-25T03:02:40.534Z,0.00
2019-02-25T03:03:40.495Z,0.00
2019-02-25T03:04:40.447Z,0.00
2019-02-25T03:05:40.416Z,0.00
2019-02-25T03:06:40.372Z,0.00
2019-02-25T03:07:40.337Z,0.00
2019-02-25T03:08:40.306Z,0.00
2019-02-25T03:09:40.267Z,0.00
2019-02-25T03:10:40.226Z,0.00
2019-02-25T03:11:40.192Z,0.00
2019-02-25T03:12:40.149Z,0.00
2019-02-25T03:13:40.133Z,0.00
2019-02-25T03:14:40.074Z,0.00
2019-02-25T03:15:40.039Z,0.00
2019-02-25T03:16:39.998Z,0.00
2019-02-25T03:17:39.964Z,0.00
2019-02-25T03:18:39.933Z,0.00
2019-02-25T03:19:39.892Z,0.00
2019-02-25T03:20:39.849Z,0.00
2019-02-25T03:21:39.818Z,0.00
2019-02-25T03:22:39.788Z,0.00
2019-02-25T03:23:39.740Z,0.00
2019-02-25T03:24:39.700Z,0.00
2019-02-25T03:25:39.658Z,0.00
2019-02-25T03:26:39.632Z,0.00
2019-02-25T03:27:39.585Z,0.00
2019-02-25T03:28:39.552Z,0.00
2019-02-25T03:29:39.515Z,0.00
2019-02-25T03:30:39.490Z,0.00
2019-02-25T03:31:39.446Z,0.00
2019-02-25T03:32:39.402Z,0.00
2019-02-25T03:33:39.360Z,0.00
2019-02-25T03:34:39.322Z,0.00
2019-02-25T03:35:39.302Z,0.00
2019-02-25T03:36:39.242Z,0.00
2019-02-25T03:37:39.213Z,0.00
2019-02-25T03:38:39.177Z,0.00
2019-02-25T03:39:39.131Z,0.00
2019-02-25T03:40:39.102Z,0.00
2019-02-25T03:41:39.063Z,0.00
2019-02-25T03:42:39.025Z,0.00
2019-02-25T03:43:38.987Z,0.00
2019-02-25T03:44:38.947Z,0.00
2019-02-25T03:45:38.913Z,0.00
2019-02-25T03:46:38.877Z,0.00
2019-02-25T03:47:38.839Z,0.00
2019-02-25T03:48:38.804Z,0.00
2019-02-25T03:49:38.754Z,0.00
2019-02-25T03:50:38.732Z,0.00
2019-02-25T03:51:38.682Z,0.00
2019-02-25T03:52:38.647Z,0.00
2019-02-25T03:53:38.609Z,0.00
2019-02-25T03:54:38.568Z,0.00
2019-02-25T03:55:38.538Z,0.00
2019-02-25T03:56:38.498Z,0.00
2019-02-25T03:57:38.463Z,0.00
2019-02-25T03:58:38.418Z,0.00
2019-02-25T03:59:38.389Z,0.00
2019-02-25T04:00:38.338Z,0.00
2019-02-25T04:01:38.309Z,0.00
2019-02-25T04:02:38.265Z,0.00
2019-02-25T04:03:38.235Z,0.00
2019-02-25T04:04:38.192Z,0.00
2019-02-25T04:05:38.152Z,0.00
2019-02-25T04:06:38.122Z,0.00
2019-02-25T04:07:38.078Z,0.00
2019-02-25T04:08:38.047Z,0.00
2019-02-25T04:09:37.995Z,0.00
2019-02-25T04:10:37.973Z,0.00
2019-02-25T04:11:37.928Z,0.00
2019-02-25T04:12:37.888Z,0.00
2019-02-25T04:13:37.859Z,0.00
2019-02-25T04:14:37.816Z,0.00
2019-02-25T04:15:37.778Z,0.00
2019-02-25T04:16:37.740Z,0.00
2019-02-25T04:17:37.710Z,0.00
2019-02-25T04:18:37.671Z,0.00
2019-02-25T04:19:37.639Z,0.00
2019-02-25T04:20:37.594Z,0.00
2019-02-25T04:21:37.553Z,0.00
2019-02-25T04:22:37.514Z,0.00
2019-02-25T04:23:37.474Z,0.00
2019-02-25T04:24:37.445Z,0.00
2019-02-25T04:25:37.407Z,0.00
2019-02-25T04:26:37.378Z,0.00
2019-02-25T04:27:37.335Z,0.00
2019-02-25T04:28:37.285Z,0.00
2019-02-25T04:29:37.261Z,0.00
2019-02-25T04:30:37.211Z,0.00
2019-02-25T04:31:37.181Z,0.00
2019-02-25T04:32:37.136Z,0.00
2019-02-25T04:33:37.111Z,0.00
2019-02-25T04:34:37.061Z,0.00
2019-02-25T04:35:37.044Z,0.00
2019-02-25T04:36:36.994Z,0.00
2019-02-25T04:37:36.956Z,0.00
2019-02-25T04:38:36.914Z,0.00
2019-02-25T04:39:36.879Z,0.00
2019-02-25T04:40:36.843Z,0.00
2019-02-25T04:41:36.799Z,0.00
2019-02-25T04:42:36.774Z,0.00
2019-02-25T04:43:36.726Z,0.00
2019-02-25T04:44:36.685Z,0.00
2019-02-25T04:45:36.651Z,0.00
2019-02-25T04:46:36.620Z,0.00
2019-02-25T04:47:36.581Z,0.00
2019-02-25T04:48:36.542Z,0.00
2019-02-25T04:49:36.497Z,0.00
2019-02-25T04:50:36.456Z,0.00
2019-02-25T04:51:36.425Z,0.00
2019-02-25T04:52:36.392Z,0.00
2019-02-25T04:53:36.347Z,0.00
2019-02-25T04:54:36.321Z,0.00
2019-02-25T04:55:36.272Z,0.00
2019-02-25T04:56:36.242Z,0.00
2019-02-25T04:57:36.196Z,0.00
2019-02-25T04:58:36.158Z,0.00
2019-02-25T04:59:36.126Z,0.00
2019-02-25T05:00:36.090Z,0.00
2019-02-25T05:01:36.047Z,0.00
2019-02-25T05:02:36.022Z,0.00
2019-02-25T05:03:35.981Z,0.00
2019-02-25T05:04:35.947Z,0.00
2019-02-25T05:05:35.910Z,0.00
2019-02-25T05:06:35.861Z,0.00
2019-02-25T05:07:35.827Z,0.00
2019-02-25T05:08:35.788Z,0.00
2019-02-25T05:09:35.753Z,0.00
2019-02-25T05:10:35.716Z,0.00
2019-02-25T05:11:35.676Z,0.00
2019-02-25T05:12:35.637Z,0.00
2019-02-25T05:13:35.593Z,0.00
2019-02-25T05:14:35.561Z,0.00
2019-02-25T05:15:35.522Z,0.00
2019-02-25T05:16:35.482Z,0.00
2019-02-25T05:17:35.453Z,0.00
2019-02-25T05:18:35.409Z,0.00
2019-02-25T05:19:35.371Z,0.00
2019-02-25T05:20:35.347Z,0.00
2019-02-25T05:21:35.298Z,0.00
2019-02-25T05:22:37.474Z,0.00
2019-02-25T05:23:35.230Z,0.00
2019-02-25T05:24:35.182Z,0.00
2019-02-25T05:25:35.141Z,0.00
2019-02-25T05:26:35.114Z,0.00
2019-02-25T05:27:35.079Z,0.00
2019-02-25T05:28:35.035Z,0.00
2019-02-25T05:29:34.992Z,0.00
2019-02-25T05:30:34.955Z,0.00
2019-02-25T05:31:34.922Z,0.00
2019-02-25T05:32:34.882Z,0.00
2019-02-25T05:33:34.854Z,0.00
2019-02-25T05:34:34.813Z,0.00
2019-02-25T05:35:34.768Z,0.00
2019-02-25T05:36:34.727Z,0.00
2019-02-25T05:37:34.695Z,0.00
2019-02-25T05:38:34.653Z,0.00
2019-02-25T05:39:34.627Z,0.00
2019-02-25T05:40:34.577Z,0.00
2019-02-25T05:41:34.534Z,0.00
2019-02-25T05:42:34.503Z,0.00
2019-02-25T05:43:34.463Z,0.00
2019-02-25T05:44:34.441Z,0.00
2019-02-25T05:45:34.390Z,0.00
2019-02-25T05:46:34.347Z,0.00
2019-02-25T05:47:34.310Z,0.00
2019-02-25T05:48:34.281Z,0.00
2019-02-25T05:49:34.240Z,0.00
2019-02-25T05:50:34.199Z,0.00
2019-02-25T05:51:34.167Z,0.00
2019-02-25T05:52:34.128Z,0.00
2019-02-25T05:53:34.087Z,0.00
2019-02-25T05:54:34.053Z,0.00
2019-02-25T05:55:34.099Z,0.00
2019-02-25T05:56:33.975Z,0.00
2019-02-25T05:57:33.939Z,0.00
2019-02-25T05:58:33.895Z,0.00
2019-02-25T05:59:33.854Z,4.00
2019-02-25T06:00:33.818Z,4.00
2019-02-25T06:01:33.783Z,0.00
2019-02-25T06:02:33.753Z,4.00
2019-02-25T06:03:33.715Z,0.00
2019-02-25T06:04:33.670Z,4.00
2019-02-25T06:05:33.634Z,4.00
2019-02-25T06:06:33.602Z,8.00
2019-02-25T06:07:33.587Z,4.00
2019-02-25T06:08:33.526Z,8.00
2019-02-25T06:09:33.483Z,8.00
2019-02-25T06:10:33.440Z,12.00
2019-02-25T06:11:33.404Z,12.00
2019-02-25T06:12:33.375Z,16.00
2019-02-25T06:13:33.328Z,16.00
2019-02-25T06:14:33.295Z,20.00
2019-02-25T06:15:33.259Z,24.00
2019-02-25T06:16:33.210Z,28.00
2019-02-25T06:17:33.184Z,32.00
2019-02-25T06:18:33.141Z,36.00
2019-02-25T06:19:33.118Z,44.00
2019-02-25T06:20:33.069Z,52.00
2019-02-25T06:21:33.030Z,60.00
2019-02-25T06:22:32.986Z,68.00
2019-02-25T06:23:32.955Z,76.00
2019-02-25T06:24:32.915Z,84.00
2019-02-25T06:25:32.884Z,100.00
2019-02-25T06:26:32.837Z,108.00
2019-02-25T06:27:32.799Z,116.00
2019-02-25T06:28:32.770Z,132.00
2019-02-25T06:29:32.734Z,144.00
2019-02-25T06:30:32.689Z,156.00
2019-02-25T06:31:32.656Z,168.00
2019-02-25T06:32:32.615Z,184.00
2019-02-25T06:33:32.575Z,196.00
2019-02-25T06:34:32.535Z,212.00
2019-02-25T06:35:32.500Z,228.00
2019-02-25T06:36:32.466Z,244.00
2019-02-25T06:37:32.430Z,264.00
2019-02-25T06:38:32.380Z,280.00
2019-02-25T06:39:32.347Z,296.00
2019-02-25T06:40:32.319Z,316.00
2019-02-25T06:41:32.284Z,336.00
2019-02-25T06:42:32.240Z,356.00
2019-02-25T06:43:32.195Z,376.00
2019-02-25T06:44:32.177Z,396.00
2019-02-25T06:45:32.120Z,412.00
2019-02-25T06:46:32.090Z,432.00
2019-02-25T06:47:32.042Z,452.00
2019-02-25T06:48:32.018Z,472.00
2019-02-25T06:49:31.967Z,488.00
2019-02-25T06:50:31.937Z,508.00
2019-02-25T06:51:31.902Z,524.00
2019-02-25T06:52:31.865Z,540.00
2019-02-25T06:53:31.823Z,556.00
2019-02-25T06:54:31.797Z,576.00
2019-02-25T06:55:31.749Z,592.00
2019-02-25T06:56:31.710Z,608.00
2019-02-25T06:57:31.675Z,624.00
2019-02-25T06:58:31.636Z,640.00
2019-02-25T06:59:31.586Z,656.00
2019-02-25T07:00:31.561Z,672.00
2019-02-25T07:01:31.520Z,688.00
2019-02-25T07:02:31.481Z,704.00
2019-02-25T07:03:31.440Z,716.00
2019-02-25T07:04:31.401Z,736.00
2019-02-25T07:05:31.360Z,748.00
2019-02-25T07:06:31.332Z,764.00
2019-02-25T07:07:31.288Z,776.00
2019-02-25T07:08:31.257Z,792.00
2019-02-25T07:09:31.216Z,808.00
2019-02-25T07:10:31.176Z,824.00
2019-02-25T07:11:31.138Z,840.00
2019-02-25T07:12:31.101Z,852.00
2019-02-25T07:13:31.062Z,868.00
2019-02-25T07:14:31.028Z,880.00
2019-02-25T07:15:30.998Z,896.00
2019-02-25T07:16:30.954Z,908.00
2019-02-25T07:17:30.909Z,924.00
2019-02-25T07:18:30.883Z,936.00
2019-02-25T07:19:30.843Z,952.00
2019-02-25T07:20:30.803Z,964.00
2019-02-25T07:21:30.757Z,976.00
2019-02-25T07:22:30.722Z,992.00
2019-02-25T07:23:30.692Z,1004.00
2019-02-25T07:24:30.659Z,1020.00
2019-02-25T07:25:30.618Z,1028.00
2019-02-25T07:26:30.580Z,1044.00
2019-02-25T07:27:30.534Z,1056.00
2019-02-25T07:28:30.503Z,1068.00
2019-02-25T07:29:30.465Z,1076.00
2019-02-25T07:30:30.435Z,1092.00
2019-02-25T07:31:30.392Z,1104.00
2019-02-25T07:32:30.385Z,1112.00
2019-02-25T07:33:30.304Z,1120.00
2019-02-25T07:34:30.279Z,1136.00
2019-02-25T07:35:30.236Z,1148.00
2019-02-25T07:36:30.197Z,1156.00
2019-02-25T07:37:30.192Z,1168.00
2019-02-25T07:38:39.023Z,1180.00
2019-02-25T07:39:30.083Z,1192.00
2019-02-25T07:40:30.050Z,1204.00
2019-02-25T07:41:30.007Z,1212.00
2019-02-25T07:42:29.970Z,1224.00
2019-02-25T07:43:29.950Z,1236.00
2019-02-25T07:44:29.898Z,1248.00
2019-02-25T07:45:29.858Z,1256.00
2019-02-25T07:46:29.825Z,1268.00
2019-02-25T07:47:29.784Z,1280.00
2019-02-25T07:48:29.753Z,1288.00
2019-02-25T07:49:29.709Z,1300.00
2019-02-25T07:50:29.680Z,1312.00
2019-02-25T07:51:29.633Z,1324.00
2019-02-25T07:52:29.598Z,1336.00
2019-02-25T07:53:29.573Z,1348.00
2019-02-25T07:54:29.520Z,1356.00
2019-02-25T07:55:29.487Z,1368.00
2019-02-25T07:56:29.451Z,1376.00
2019-02-25T07:57:29.419Z,1388.00
2019-02-25T07:58:29.373Z,1396.00
2019-02-25T07:59:29.333Z,1408.00
2019-02-25T08:00:29.295Z,1420.00
2019-02-25T08:01:29.266Z,1428.00
2019-02-25T08:02:29.220Z,1440.00
2019-02-25T08:03:29.228Z,1452.00
2019-02-25T08:04:29.154Z,1460.00
2019-02-25T08:05:29.104Z,1472.00
2019-02-25T08:06:29.079Z,1480.00
2019-02-25T08:07:29.031Z,1488.00
2019-02-25T08:08:28.994Z,1500.00
2019-02-25T08:09:28.956Z,1512.00
2019-02-25T08:10:28.921Z,1520.00
2019-02-25T08:11:28.886Z,1528.00
2019-02-25T08:12:28.864Z,1536.00
2019-02-25T08:13:28.817Z,1544.00
2019-02-25T08:14:28.785Z,1552.00
2019-02-25T08:15:28.744Z,1564.00
2019-02-25T08:16:28.701Z,1572.00
2019-02-25T08:17:28.664Z,1580.00
2019-02-25T08:18:28.621Z,1592.00
2019-02-25T08:19:28.586Z,1596.00
2019-02-25T08:20:28.545Z,1608.00
2019-02-25T08:21:28.510Z,1616.00
2019-02-25T08:22:28.492Z,1628.00
2019-02-25T08:23:28.452Z,1636.00
2019-02-25T08:24:30.814Z,1644.00
2019-02-25T08:25:28.363Z,1660.00
2019-02-25T08:26:28.322Z,1668.00
2019-02-25T08:27:28.291Z,1676.00
2019-02-25T08:28:28.251Z,1684.00
2019-02-25T08:29:28.228Z,1700.00
2019-02-25T08:30:28.188Z,1708.00
2019-02-25T08:31:28.137Z,1724.00
2019-02-25T08:32:28.112Z,1736.00
2019-02-25T08:33:28.056Z,1748.00
2019-02-25T08:34:28.031Z,1764.00
2019-02-25T08:35:27.993Z,1772.00
2019-02-25T08:36:27.960Z,1788.00
2019-02-25T08:37:27.932Z,1796.00
2019-02-25T08:38:27.877Z,1812.00
2019-02-25T08:39:27.853Z,1820.00
2019-02-25T08:40:27.817Z,1836.00
2019-02-25T08:41:27.765Z,1844.00
2019-02-25T08:42:27.738Z,1856.00
2019-02-25T08:43:27.705Z,1872.00
2019-02-25T08:44:27.653Z,1884.00
2019-02-25T08:45:27.631Z,1896.00
2019-02-25T08:46:27.583Z,1908.00
2019-02-25T08:47:27.550Z,1912.00
2019-02-25T08:48:27.517Z,1928.00
2019-02-25T08:49:27.477Z,1936.00
2019-02-25T08:50:27.437Z,1944.00
2019-02-25T08:51:27.412Z,1952.00
2019-02-25T08:52:27.371Z,1968.00
2019-02-25T08:53:27.337Z,1980.00
2019-02-25T08:54:27.297Z,1992.00
2019-02-25T08:55:27.257Z,2004.00
2019-02-25T08:56:27.223Z,2016.00
2019-02-25T08:57:27.196Z,2024.00
2019-02-25T08:58:27.156Z,2036.00
2019-02-25T08:59:27.116Z,2052.00
2019-02-25T09:00:27.079Z,2064.00
2019-02-25T09:01:27.037Z,2076.00
2019-02-25T09:02:27.010Z,2096.00
2019-02-25T09:03:27.018Z,2108.00
2019-02-25T09:04:26.928Z,2128.00
2019-02-25T09:05:26.904Z,2136.00
2019-02-25T09:06:26.863Z,2156.00
2019-02-25T09:07:26.829Z,2164.00
2019-02-25T09:08:26.792Z,2180.00
2019-02-25T09:09:26.751Z,2196.00
2019-02-25T09:10:26.718Z,2208.00
2019-02-25T09:11:26.691Z,2228.00
2019-02-25T09:12:26.647Z,2240.00
2019-02-25T09:13:26.608Z,2252.00
2019-02-25T09:14:26.573Z,2264.00
2019-02-25T09:15:27.559Z,2276.00
2019-02-25T09:16:26.503Z,2292.00
2019-02-25T09:17:26.465Z,2304.00
2019-02-25T09:18:26.433Z,2320.00
2019-02-25T09:19:26.402Z,2340.00
2019-02-25T09:20:26.362Z,2360.00
2019-02-25T09:21:31.914Z,2376.00
2019-02-25T09:22:26.297Z,2392.00
2019-02-25T09:23:26.249Z,2408.00
2019-02-25T09:24:26.226Z,2408.00
2019-02-25T09:25:26.189Z,2408.00
2019-02-25T09:26:26.155Z,2408.00
2019-02-25T09:27:26.113Z,2412.00
2019-02-25T09:28:26.080Z,2420.00
2019-02-25T09:29:26.030Z,2432.00
2019-02-25T09:30:26.010Z,2436.00
2019-02-25T09:31:25.971Z,2452.00
2019-02-25T09:32:25.940Z,2472.00
2019-02-25T09:33:25.914Z,2488.00
2019-02-25T09:34:25.885Z,2504.00
2019-02-25T09:35:25.835Z,2520.00
2019-02-25T09:36:25.835Z,2520.00
2019-02-25T09:37:25.761Z,2536.00
2019-02-25T09:38:25.729Z,2556.00
2019-02-25T09:39:25.700Z,2576.00
2019-02-25T09:40:25.663Z,2580.00
2019-02-25T09:41:30.031Z,2592.00
2019-02-25T09:42:25.588Z,2600.00
2019-02-25T09:43:25.555Z,2616.00
2019-02-25T09:44:25.519Z,2628.00
2019-02-25T09:45:25.479Z,2648.00
2019-02-25T09:46:25.451Z,2668.00
2019-02-25T09:47:25.420Z,2684.00
2019-02-25T09:48:25.390Z,2708.00
2019-02-25T09:49:25.357Z,2720.00
2019-02-25T09:50:25.316Z,2732.00
2019-02-25T09:51:25.276Z,2752.00
2019-02-25T09:52:25.241Z,2780.00
2019-02-25T09:53:25.207Z,2804.00
2019-02-25T09:54:25.181Z,2816.00
2019-02-25T09:55:25.151Z,2848.00
2019-02-25T09:56:25.110Z,4920.00
2019-02-25T09:57:25.080Z,52288.00
2019-02-25T09:58:25.034Z,104768.00
2019-02-25T09:59:25.015Z,111552.00
2019-02-25T10:00:24.982Z,111776.00
2019-02-25T10:01:24.946Z,111680.00
2019-02-25T10:02:24.981Z,112896.00
2019-02-25T10:03:24.886Z,112256.00
2019-02-25T10:04:24.851Z,111712.00
2019-02-25T10:05:24.816Z,97152.00
2019-02-25T10:06:24.797Z,91808.00
2019-02-25T10:07:24.762Z,111904.00
2019-02-25T10:08:24.732Z,114336.00
2019-02-25T10:09:29.831Z,112480.00
2019-02-25T10:10:24.670Z,112320.00
2019-02-25T10:11:24.642Z,111040.00
2019-02-25T10:12:24.621Z,112288.00
2019-02-25T10:13:24.606Z,111808.00
2019-02-25T10:14:24.563Z,113312.00
2019-02-25T10:15:24.554Z,113536.00
2019-02-25T10:16:24.520Z,111584.00
2019-02-25T10:17:24.505Z,111296.00
2019-02-25T10:18:24.477Z,111744.00
2019-02-25T10:19:24.457Z,112096.00
2019-02-25T10:20:24.431Z,111584.00
2019-02-25T10:21:24.410Z,114016.00
2019-02-25T10:22:24.381Z,111584.00
2019-02-25T10:23:24.362Z,111040.00
2019-02-25T10:24:24.335Z,112096.00
2019-02-25T10:25:24.305Z,111680.00
2019-02-25T10:26:24.297Z,109376.00
2019-02-25T10:27:24.265Z,109760.00
2019-02-25T10:28:24.252Z,112768.00
2019-02-25T10:29:24.217Z,111040.00
2019-02-25T10:30:24.203Z,111584.00
2019-02-25T10:31:24.179Z,109792.00
2019-02-25T10:32:25.939Z,110688.00
2019-02-25T10:33:24.142Z,113152.00
2019-02-25T10:34:24.180Z,111712.00
2019-02-25T10:35:24.875Z,111616.00
2019-02-25T10:36:24.079Z,108288.00
2019-02-25T10:37:24.057Z,108416.00
2019-02-25T10:38:24.046Z,109024.00
2019-02-25T10:39:24.013Z,110336.00
2019-02-25T10:40:25.390Z,111392.00
2019-02-25T10:41:25.596Z,111008.00
2019-02-25T10:42:23.958Z,114048.00
2019-02-25T10:43:25.575Z,112992.00
2019-02-25T10:44:23.918Z,112928.00
2019-02-25T10:45:23.896Z,112032.00
2019-02-25T10:46:23.877Z,110784.00
2019-02-25T10:47:23.868Z,109376.00
2019-02-25T10:48:25.761Z,109536.00
2019-02-25T10:49:24.517Z,109184.00
2019-02-25T10:50:23.802Z,107488.00
2019-02-25T10:51:23.777Z,108000.00
2019-02-25T10:52:23.755Z,109952.00
2019-02-25T10:53:23.729Z,107104.00
2019-02-25T10:54:25.306Z,107232.00
2019-02-25T10:55:23.693Z,109440.00
2019-02-25T10:56:24.274Z,109920.00
2019-02-25T10:57:26.077Z,109920.00
2019-02-25T10:58:25.282Z,111584.00
2019-02-25T10:59:23.609Z,109984.00
2019-02-25T11:00:23.588Z,109568.00
2019-02-25T11:01:24.548Z,110784.00
2019-02-25T11:02:23.556Z,109888.00
2019-02-25T11:03:23.531Z,110048.00
2019-02-25T11:04:25.674Z,109536.00
2019-02-25T11:05:25.433Z,110816.00
2019-02-25T11:06:25.152Z,111104.00
2019-02-25T11:07:23.450Z,110432.00
2019-02-25T11:08:23.431Z,110880.00
2019-02-25T11:09:23.409Z,109536.00
2019-02-25T11:10:23.396Z,110688.00
2019-02-25T11:11:24.947Z,108224.00
2019-02-25T11:12:24.124Z,108768.00
2019-02-25T11:13:23.328Z,109696.00
2019-02-25T11:14:23.315Z,109408.00
2019-02-25T11:15:23.294Z,112256.00
2019-02-25T11:16:23.270Z,109376.00
2019-02-25T11:17:24.466Z,109472.00
2019-02-25T11:18:24.548Z,109024.00
2019-02-25T11:19:24.902Z,107840.00
2019-02-25T11:20:23.189Z,107328.00
2019-02-25T11:21:23.161Z,107808.00
2019-02-25T11:22:23.147Z,108384.00
2019-02-25T11:23:23.126Z,108096.00
2019-02-25T11:24:25.262Z,109280.00
2019-02-25T11:25:24.053Z,108288.00
2019-02-25T11:26:23.749Z,107328.00
2019-02-25T11:27:23.049Z,108512.00
2019-02-25T11:28:25.906Z,110304.00
2019-02-25T11:29:23.013Z,109824.00
2019-02-25T11:30:23.878Z,110304.00
2019-02-25T11:31:25.821Z,108896.00
2019-02-25T11:32:23.786Z,108800.00
2019-02-25T11:33:25.124Z,107840.00
2019-02-25T11:34:22.916Z,106112.00
2019-02-25T11:35:22.895Z,109088.00
2019-02-25T11:36:22.876Z,106592.00
2019-02-25T11:37:24.736Z,103840.00
2019-02-25T11:38:23.753Z,103936.00
2019-02-25T11:39:22.831Z,104512.00
2019-02-25T11:40:22.802Z,107616.00
2019-02-25T11:41:22.786Z,106112.00
2019-02-25T11:42:22.766Z,104992.00
2019-02-25T11:43:22.740Z,104320.00
2019-02-25T11:44:23.402Z,104320.00
2019-02-25T11:45:22.712Z,105824.00
2019-02-25T11:46:22.686Z,106944.00
2019-02-25T11:47:22.672Z,104928.00
2019-02-25T11:48:22.793Z,106528.00
2019-02-25T11:49:22.643Z,106720.00
2019-02-25T11:50:22.621Z,102784.00
2019-02-25T11:51:22.592Z,101728.00
2019-02-25T11:52:22.577Z,106976.00
2019-02-25T11:53:22.567Z,106944.00
2019-02-25T11:54:22.546Z,104096.00
2019-02-25T11:55:22.527Z,102368.00
2019-02-25T11:56:22.506Z,101056.00
2019-02-25T11:57:22.499Z,101216.00
2019-02-25T11:58:22.484Z,101920.00
2019-02-25T11:59:22.461Z,101088.00
2019-02-25T12:00:22.455Z,98976.00
2019-02-25T12:01:22.416Z,98496.00
2019-02-25T12:02:25.585Z,99552.00
2019-02-25T12:03:22.386Z,99520.00
2019-02-25T12:04:22.371Z,99264.00
2019-02-25T12:05:22.351Z,97184.00
2019-02-25T12:06:22.328Z,95680.00
2019-02-25T12:07:22.312Z,96000.00
2019-02-25T12:08:22.298Z,94400.00
2019-02-25T12:09:22.284Z,92736.00
2019-02-25T12:10:22.266Z,90912.00
2019-02-25T12:11:22.244Z,91328.00
2019-02-25T12:12:22.241Z,86432.00
2019-02-25T12:13:22.209Z,48160.00
2019-02-25T12:14:22.185Z,23616.00
2019-02-25T12:15:22.176Z,21216.00
2019-02-25T12:16:22.147Z,20192.00
2019-02-25T12:17:22.136Z,19584.00
2019-02-25T12:18:22.113Z,19328.00
2019-02-25T12:19:22.099Z,19936.00
2019-02-25T12:20:22.092Z,19968.00
2019-02-25T12:21:22.069Z,20032.00
2019-02-25T12:22:22.049Z,19456.00
2019-02-25T12:23:22.029Z,19168.00
2019-02-25T12:24:22.015Z,18720.00
2019-02-25T12:25:21.987Z,17600.00
2019-02-25T12:26:21.983Z,17248.00
2019-02-25T12:27:21.955Z,19296.00
2019-02-25T12:28:21.944Z,21088.00
2019-02-25T12:29:21.936Z,22016.00
2019-02-25T12:30:21.900Z,22336.00
2019-02-25T12:31:21.879Z,23232.00
2019-02-25T12:32:21.862Z,24544.00
2019-02-25T12:33:21.852Z,39424.00